PWSweather.com
Personal Weather Stations
Station Observations
IFRIESLA82
NoordbergumNL

NoordbergumNL

Lat: 53.223961, Lon: 5.999605

Elevation: 6

Station Type: Davis Vantage pro 2

Latest ConditionsUpdated 6:49:52 PM GMT+01:01 Sunday, May 19, 2019
Currently Today's Max Today's Min Today's Average
Temperature 62.2°F16.8°C 65.5°F18.6°C 51.4°F10.8°C 58.5°F14.7°C
Dew Point 56.3°F13.5°C 58.1°F14.5°C 49.3°F9.6°C 54.1°F12.3°C
Winds 6.0 mph NNE9.7 kmh NNE 6.9 mph -11.1 kmh - - 3.8 mph 6.1 kmh
Wind Gusts 12.1 mph19.5 kmh 16.1 mph25.9 kmh - -
Humidity 81% 94% 77% 86%
Pressure 29.70 in1005.8 mb 29.73 in1006.8 mb 29.69 in1005.4 mb -
Hour Temp Dew Point Humidity Winds Wind Gusts Pressure Precip Precip Rate Daily Precip Total
06:49 PM 62.2°F16.8°C 56.3°F13.5°C 81% 6.0 mph NNE9.7 kmh NNE 12.1 mph19.5 kmh 29.70 in1005.8 mb 0.00 in0.0 mm 0.00 in0.0 mm 0.00 in0.0 mm
06:34 PM 62.8°F17.1°C 56.5°F13.6°C 80% 4.9 mph NE7.9 kmh NE 13.0 mph20.9 kmh 29.69 in1005.4 mb 0.00 in0.0 mm 0.00 in0.0 mm 0.00 in0.0 mm
06:19 PM 61.0°F16.1°C 55.8°F13.2°C 83% 6.0 mph N9.7 kmh N 13.0 mph20.9 kmh 29.70 in1005.8 mb 0.00 in0.0 mm 0.00 in0.0 mm 0.00 in0.0 mm
06:04 PM 59.7°F15.4°C 54.5°F12.5°C 83% 4.9 mph N7.9 kmh N 13.0 mph20.9 kmh 29.70 in1005.8 mb 0.00 in0.0 mm 0.00 in0.0 mm 0.00 in0.0 mm
05:49 PM 59.7°F15.4°C 54.9°F12.7°C 84% 4.9 mph NE7.9 kmh NE 13.0 mph20.9 kmh 29.69 in1005.4 mb 0.00 in0.0 mm 0.00 in0.0 mm 0.00 in0.0 mm
05:34 PM 60.1°F15.6°C 54.5°F12.5°C 82% 6.0 mph NE9.7 kmh NE 13.0 mph20.9 kmh 29.69 in1005.4 mb 0.00 in0.0 mm 0.00 in0.0 mm 0.00 in0.0 mm
05:19 PM 61.3°F16.3°C 55.0°F12.8°C 80% 6.0 mph 9.7 kmh 13.0 mph20.9 kmh 29.70 in1005.8 mb 0.00 in0.0 mm 0.00 in0.0 mm 0.00 in0.0 mm
05:04 PM 62.6°F17.0°C 55.9°F13.3°C 79% 6.0 mph N9.7 kmh N 13.0 mph20.9 kmh 29.70 in1005.8 mb 0.00 in0.0 mm 0.00 in0.0 mm 0.00 in0.0 mm
04:49 PM 62.2°F16.8°C 55.6°F13.1°C 79% 6.0 mph N9.7 kmh N 13.0 mph20.9 kmh 29.70 in1005.8 mb 0.00 in0.0 mm 0.00 in0.0 mm 0.00 in0.0 mm
04:34 PM 63.3°F17.4°C 56.3°F13.5°C 78% 4.0 mph NE6.4 kmh NE 13.0 mph20.9 kmh 29.70 in1005.8 mb 0.00 in0.0 mm 0.00 in0.0 mm 0.00 in0.0 mm
04:19 PM 62.2°F16.8°C 55.9°F13.3°C 80% 4.9 mph NNE7.9 kmh NNE 13.0 mph20.9 kmh 29.70 in1005.8 mb 0.00 in0.0 mm 0.00 in0.0 mm 0.00 in0.0 mm
04:04 PM 62.8°F17.1°C 56.5°F13.6°C 80% 4.9 mph NE7.9 kmh NE 16.1 mph25.9 kmh 29.70 in1005.8 mb 0.00 in0.0 mm 0.00 in0.0 mm 0.00 in0.0 mm
03:49 PM 62.4°F16.9°C 55.8°F13.2°C 79% 6.0 mph N9.7 kmh N 16.1 mph25.9 kmh 29.70 in1005.8 mb 0.00 in0.0 mm 0.00 in0.0 mm 0.00 in0.0 mm
03:34 PM 62.8°F17.1°C 56.5°F13.6°C 80% 6.0 mph NNE9.7 kmh NNE 13.0 mph20.9 kmh 29.70 in1005.8 mb 0.00 in0.0 mm 0.00 in0.0 mm 0.00 in0.0 mm
03:19 PM 62.4°F16.9°C 56.5°F13.6°C 81% 6.9 mph NE11.1 kmh NE 13.0 mph20.9 kmh 29.70 in1005.8 mb 0.00 in0.0 mm 0.00 in0.0 mm 0.00 in0.0 mm
03:04 PM 62.1°F16.7°C 56.1°F13.4°C 81% 6.0 mph NE9.7 kmh NE 13.0 mph20.9 kmh 29.70 in1005.8 mb 0.00 in0.0 mm 0.00 in0.0 mm 0.00 in0.0 mm
02:49 PM 62.4°F16.9°C 56.5°F13.6°C 81% 6.0 mph NNW9.7 kmh NNW 12.1 mph19.5 kmh 29.70 in1005.8 mb 0.00 in0.0 mm 0.00 in0.0 mm 0.00 in0.0 mm
02:34 PM 62.1°F16.7°C 56.5°F13.6°C 82% 6.9 mph NNE11.1 kmh NNE 13.0 mph20.9 kmh 29.70 in1005.8 mb 0.00 in0.0 mm 0.00 in0.0 mm 0.00 in0.0 mm
02:19 PM 61.9°F16.6°C 56.3°F13.5°C 82% 6.0 mph NE9.7 kmh NE 14.1 mph22.7 kmh 29.71 in1006.1 mb 0.00 in0.0 mm 0.00 in0.0 mm 0.00 in0.0 mm
02:04 PM 60.8°F16.0°C 55.6°F13.1°C 83% 6.9 mph NNE11.1 kmh NNE 15.0 mph24.1 kmh 29.71 in1006.1 mb 0.00 in0.0 mm 0.00 in0.0 mm 0.00 in0.0 mm
01:49 PM 60.6°F15.9°C 55.4°F13.0°C 83% 4.9 mph NE7.9 kmh NE 14.1 mph22.7 kmh 29.71 in1006.1 mb 0.00 in0.0 mm 0.00 in0.0 mm 0.00 in0.0 mm
01:34 PM 60.3°F15.7°C 55.0°F12.8°C 83% 6.0 mph N9.7 kmh N 15.0 mph24.1 kmh 29.71 in1006.1 mb 0.00 in0.0 mm 0.00 in0.0 mm 0.00 in0.0 mm
01:19 PM 60.4°F15.8°C 55.2°F12.9°C 83% 6.0 mph NE9.7 kmh NE 15.0 mph24.1 kmh 29.72 in1006.4 mb 0.00 in0.0 mm 0.00 in0.0 mm 0.00 in0.0 mm
01:04 PM 61.3°F16.3°C 55.4°F13.0°C 81% 4.9 mph NNE7.9 kmh NNE 14.1 mph22.7 kmh 29.72 in1006.4 mb 0.00 in0.0 mm 0.00 in0.0 mm 0.00 in0.0 mm
12:49 PM 62.8°F17.1°C 56.5°F13.6°C 80% 4.0 mph ENE6.4 kmh ENE 11.0 mph17.7 kmh 29.72 in1006.4 mb 0.00 in0.0 mm 0.00 in0.0 mm 0.00 in0.0 mm
12:34 PM 62.1°F16.7°C 56.1°F13.4°C 81% 6.9 mph NE11.1 kmh NE 14.1 mph22.7 kmh 29.72 in1006.4 mb 0.00 in0.0 mm 0.00 in0.0 mm 0.00 in0.0 mm
12:19 PM 64.2°F17.9°C 57.2°F14.0°C 78% 6.0 mph N9.7 kmh N 14.1 mph22.7 kmh 29.72 in1006.4 mb 0.00 in0.0 mm 0.00 in0.0 mm 0.00 in0.0 mm
12:04 PM 64.0°F17.8°C 57.7°F14.3°C 80% 4.9 mph N7.9 kmh N 12.1 mph19.5 kmh 29.72 in1006.4 mb 0.00 in0.0 mm 0.00 in0.0 mm 0.00 in0.0 mm
11:49 AM 64.0°F17.8°C 57.4°F14.1°C 79% 6.0 mph 9.7 kmh 13.0 mph20.9 kmh 29.72 in1006.4 mb 0.00 in0.0 mm 0.00 in0.0 mm 0.00 in0.0 mm
11:34 AM 64.0°F17.8°C 57.4°F14.1°C 79% 6.0 mph 9.7 kmh 12.1 mph19.5 kmh 29.72 in1006.4 mb 0.00 in0.0 mm 0.00 in0.0 mm 0.00 in0.0 mm
11:19 AM 63.5°F17.5°C 56.8°F13.8°C 79% 6.0 mph N9.7 kmh N 12.1 mph19.5 kmh 29.72 in1006.4 mb 0.00 in0.0 mm 0.00 in0.0 mm 0.00 in0.0 mm
11:04 AM 65.5°F18.6°C 58.1°F14.5°C 77% 4.0 mph NNE6.4 kmh NNE 12.1 mph19.5 kmh 29.72 in1006.4 mb 0.00 in0.0 mm 0.00 in0.0 mm 0.00 in0.0 mm
10:49 AM 64.6°F18.1°C 57.9°F14.4°C 79% 4.9 mph NNE7.9 kmh NNE 12.1 mph19.5 kmh 29.72 in1006.4 mb 0.00 in0.0 mm 0.00 in0.0 mm 0.00 in0.0 mm
10:34 AM 64.0°F17.8°C 57.4°F14.1°C 79% 6.0 mph NNE9.7 kmh NNE 12.1 mph19.5 kmh 29.72 in1006.4 mb 0.00 in0.0 mm 0.00 in0.0 mm 0.00 in0.0 mm
10:19 AM 64.0°F17.8°C 57.7°F14.3°C 80% 4.9 mph NNE7.9 kmh NNE 12.1 mph19.5 kmh 29.72 in1006.4 mb 0.00 in0.0 mm 0.00 in0.0 mm 0.00 in0.0 mm
10:04 AM 63.7°F17.6°C 57.4°F14.1°C 80% 4.9 mph NE7.9 kmh NE 12.1 mph19.5 kmh 29.72 in1006.4 mb 0.00 in0.0 mm 0.00 in0.0 mm 0.00 in0.0 mm
09:49 AM 63.3°F17.4°C 57.0°F13.9°C 80% 4.9 mph N7.9 kmh N 12.0 mph19.3 kmh 29.72 in1006.4 mb 0.00 in0.0 mm 0.00 in0.0 mm 0.00 in0.0 mm
09:34 AM 62.8°F17.1°C 57.2°F14.0°C 82% 4.9 mph NNW7.9 kmh NNW 10.1 mph16.3 kmh 29.72 in1006.4 mb 0.00 in0.0 mm 0.00 in0.0 mm 0.00 in0.0 mm
09:19 AM 61.5°F16.4°C 56.3°F13.5°C 83% 4.9 mph N7.9 kmh N 12.1 mph19.5 kmh 29.72 in1006.4 mb 0.00 in0.0 mm 0.00 in0.0 mm 0.00 in0.0 mm
09:04 AM 61.3°F16.3°C 56.1°F13.4°C 83% 4.9 mph N7.9 kmh N 10.1 mph16.3 kmh 29.73 in1006.8 mb 0.00 in0.0 mm 0.00 in0.0 mm 0.00 in0.0 mm
08:49 AM 61.3°F16.3°C 56.8°F13.8°C 85% 4.0 mph NW6.4 kmh NW 11.0 mph17.7 kmh 29.73 in1006.8 mb 0.00 in0.0 mm 0.00 in0.0 mm 0.00 in0.0 mm
08:34 AM 60.8°F16.0°C 56.3°F13.5°C 85% 4.0 mph SW6.4 kmh SW 13.0 mph20.9 kmh 29.72 in1006.4 mb 0.00 in0.0 mm 0.00 in0.0 mm 0.00 in0.0 mm
08:19 AM 59.9°F15.5°C 55.9°F13.3°C 87% 4.0 mph NE6.4 kmh NE 11.0 mph17.7 kmh 29.72 in1006.4 mb 0.00 in0.0 mm 0.00 in0.0 mm 0.00 in0.0 mm
08:04 AM 58.5°F14.7°C 55.2°F12.9°C 89% 4.9 mph NE7.9 kmh NE 10.1 mph16.3 kmh 29.73 in1006.8 mb 0.00 in0.0 mm 0.00 in0.0 mm 0.00 in0.0 mm
07:49 AM 57.7°F14.3°C 54.9°F12.7°C 90% 2.9 mph NNE4.7 kmh NNE 8.9 mph14.3 kmh 29.73 in1006.8 mb 0.00 in0.0 mm 0.00 in0.0 mm 0.00 in0.0 mm
07:34 AM 56.8°F13.8°C 54.5°F12.5°C 92% 4.0 mph N6.4 kmh N 10.1 mph16.3 kmh 29.72 in1006.4 mb 0.00 in0.0 mm 0.00 in0.0 mm 0.00 in0.0 mm
07:19 AM 56.1°F13.4°C 53.8°F12.1°C 92% 2.9 mph NNE4.7 kmh NNE 10.1 mph16.3 kmh 29.72 in1006.4 mb 0.00 in0.0 mm 0.00 in0.0 mm 0.00 in0.0 mm
07:04 AM 55.4°F13.0°C 53.4°F11.9°C 93% 4.0 mph NNE6.4 kmh NNE 11.0 mph17.7 kmh 29.72 in1006.4 mb 0.00 in0.0 mm 0.00 in0.0 mm 0.00 in0.0 mm
06:49 AM 54.9°F12.7°C 53.2°F11.8°C 94% 2.9 mph N4.7 kmh N 8.1 mph13.0 kmh 29.72 in1006.4 mb 0.00 in0.0 mm 0.00 in0.0 mm 0.00 in0.0 mm
06:34 AM 54.1°F12.3°C 52.5°F11.4°C 94% 2.9 mph NNE4.7 kmh NNE 4.9 mph7.9 kmh 29.72 in1006.4 mb 0.00 in0.0 mm 0.00 in0.0 mm 0.00 in0.0 mm
06:19 AM 53.4°F11.9°C 51.8°F11.0°C 94% 2.0 mph N3.2 kmh N 6.0 mph9.7 kmh 29.72 in1006.4 mb 0.00 in0.0 mm 0.00 in0.0 mm 0.00 in0.0 mm
06:04 AM 52.7°F11.5°C 51.1°F10.6°C 94% 0.9 mph N1.4 kmh N 4.0 mph6.4 kmh 29.72 in1006.4 mb 0.00 in0.0 mm 0.00 in0.0 mm 0.00 in0.0 mm
05:49 AM 52.3°F11.3°C 50.4°F10.2°C 93% 0.9 mph 1.4 kmh 2.9 mph4.7 kmh 29.72 in1006.4 mb 0.00 in0.0 mm 0.00 in0.0 mm 0.00 in0.0 mm
05:34 AM 52.0°F11.1°C 50.0°F10.0°C 93% 0.9 mph 1.4 kmh 2.9 mph4.7 kmh 29.72 in1006.4 mb 0.00 in0.0 mm 0.00 in0.0 mm 0.00 in0.0 mm
05:19 AM 51.6°F10.9°C 49.6°F9.8°C 93% 0.9 mph 1.4 kmh 2.9 mph4.7 kmh 29.71 in1006.1 mb 0.00 in0.0 mm 0.00 in0.0 mm 0.00 in0.0 mm
05:04 AM 51.4°F10.8°C 49.3°F9.6°C 92% 0.9 mph 1.4 kmh 3.0 mph4.8 kmh 29.71 in1006.1 mb 0.00 in0.0 mm 0.00 in0.0 mm 0.00 in0.0 mm
04:49 AM 51.4°F10.8°C 49.3°F9.6°C 92% 0.9 mph 1.4 kmh 2.9 mph4.7 kmh 29.71 in1006.1 mb 0.00 in0.0 mm 0.00 in0.0 mm 0.00 in0.0 mm
04:34 AM 51.6°F10.9°C 49.5°F9.7°C 92% 0.9 mph 1.4 kmh 2.0 mph3.2 kmh 29.71 in1006.1 mb 0.00 in0.0 mm 0.00 in0.0 mm 0.00 in0.0 mm
04:19 AM 52.0°F11.1°C 49.6°F9.8°C 92% 0.9 mph 1.4 kmh 2.9 mph4.7 kmh 29.71 in1006.1 mb 0.00 in0.0 mm 0.00 in0.0 mm 0.00 in0.0 mm
04:04 AM 52.2°F11.2°C 49.8°F9.9°C 92% 0.9 mph 1.4 kmh 2.9 mph4.7 kmh 29.71 in1006.1 mb 0.00 in0.0 mm 0.00 in0.0 mm 0.00 in0.0 mm
03:49 AM 52.3°F11.3°C 50.0°F10.0°C 92% 2.0 mph 3.2 kmh 4.0 mph6.4 kmh 29.71 in1006.1 mb 0.00 in0.0 mm 0.00 in0.0 mm 0.00 in0.0 mm
03:34 AM 52.5°F11.4°C 50.2°F10.1°C 92% 0.9 mph 1.4 kmh 2.9 mph4.7 kmh 29.71 in1006.1 mb 0.00 in0.0 mm 0.00 in0.0 mm 0.00 in0.0 mm
03:19 AM 52.7°F11.5°C 50.4°F10.2°C 92% 0.9 mph 1.4 kmh 3.0 mph4.8 kmh 29.71 in1006.1 mb 0.00 in0.0 mm 0.00 in0.0 mm 0.00 in0.0 mm
03:04 AM 52.9°F11.6°C 50.4°F10.2°C 91% 0.9 mph 1.4 kmh 2.0 mph3.2 kmh 29.71 in1006.1 mb 0.00 in0.0 mm 0.00 in0.0 mm 0.00 in0.0 mm
02:49 AM 53.1°F11.7°C 50.5°F10.3°C 91% 0.9 mph 1.4 kmh 4.0 mph6.4 kmh 29.72 in1006.4 mb 0.00 in0.0 mm 0.00 in0.0 mm 0.00 in0.0 mm
02:34 AM 53.2°F11.8°C 50.7°F10.4°C 91% 0.9 mph 1.4 kmh 2.9 mph4.7 kmh 29.72 in1006.4 mb 0.00 in0.0 mm 0.00 in0.0 mm 0.00 in0.0 mm
02:19 AM 53.2°F11.8°C 50.7°F10.4°C 91% 0.9 mph 1.4 kmh 2.9 mph4.7 kmh 29.72 in1006.4 mb 0.00 in0.0 mm 0.00 in0.0 mm 0.00 in0.0 mm
02:04 AM 53.4°F11.9°C 50.9°F10.5°C 91% 2.0 mph 3.2 kmh 4.0 mph6.4 kmh 29.72 in1006.4 mb 0.00 in0.0 mm 0.00 in0.0 mm 0.00 in0.0 mm
01:49 AM 53.6°F12.0°C 50.7°F10.4°C 90% 2.0 mph NNW3.2 kmh NNW 4.0 mph6.4 kmh 29.72 in1006.4 mb 0.00 in0.0 mm 0.00 in0.0 mm 0.00 in0.0 mm
01:34 AM 53.8°F12.1°C 50.9°F10.5°C 90% 2.0 mph NNW3.2 kmh NNW 4.0 mph6.4 kmh 29.72 in1006.4 mb 0.00 in0.0 mm 0.00 in0.0 mm 0.00 in0.0 mm
01:19 AM 53.8°F12.1°C 50.9°F10.5°C 90% 0.9 mph NNW1.4 kmh NNW 4.0 mph6.4 kmh 29.72 in1006.4 mb 0.00 in0.0 mm 0.00 in0.0 mm 0.00 in0.0 mm
01:04 AM 53.8°F12.1°C 50.5°F10.3°C 89% 0.9 mph NNW1.4 kmh NNW 3.0 mph4.8 kmh 29.72 in1006.4 mb 0.00 in0.0 mm 0.00 in0.0 mm 0.00 in0.0 mm
12:49 AM 53.8°F12.1°C 50.5°F10.3°C 89% 0.9 mph NNW1.4 kmh NNW 2.9 mph4.7 kmh 29.72 in1006.4 mb 0.00 in0.0 mm 0.00 in0.0 mm 0.00 in0.0 mm
12:34 AM 54.0°F12.2°C 50.7°F10.4°C 89% 0.9 mph NNW1.4 kmh NNW 3.0 mph4.8 kmh 29.73 in1006.8 mb 0.00 in0.0 mm 0.00 in0.0 mm 0.00 in0.0 mm
12:19 AM 54.0°F12.2°C 50.7°F10.4°C 89% 0.9 mph NNW1.4 kmh NNW 2.9 mph4.7 kmh 29.73 in1006.8 mb 0.00 in0.0 mm 0.00 in0.0 mm 0.00 in0.0 mm
12:04 AM 54.0°F12.2°C 50.7°F10.4°C 89% 0.9 mph NNW1.4 kmh NNW 2.9 mph4.7 kmh 29.73 in1006.8 mb 0.00 in0.0 mm 0.00 in0.0 mm 0.00 in0.0 mm